Bow Valley, Alberta

11:33 AM MDT on September 27, 2016 (GMT -0600)
Lac des Arcs | | Change Station

Elev 4288 ft 51.05 °N, 115.16 °W | Updated 24 seconds ago

Clear
Clear
56.9 °F
Feels Like 56.9 °F
N
0.0
Wind Variable Wind from SSW
Gusts 8.0 mph

Today
High -- | Low -- °F
--% Chance of Precip.
Yesterday
High -- | Low -- °F
Precip. -- in
Pressure 30.04 in
Visibility 9.0 miles
Clouds Clear
Dew Point 44 °F
Humidity 63%
Rainfall 0.00 in
Snow Depth Not available.
7:35 AM 7:25 PM
Waning Crescent, 10% visible
METAR CYBW 271700Z AUTO 01027G36KT 9SM CLR 12/05 A3001 RMK SLP170 DENSITY ALT 4300FT
Pressure 30.04 in
Visibility 9.0 miles
Clouds Clear
Dew Point 44 °F
Humidity 63%
Rainfall 0.00 in
Snow Depth Not available.
7:35 AM 7:25 PM
Waning Crescent, 10% visible
METAR CYBW 271700Z AUTO 01027G36KT 9SM CLR 12/05 A3001 RMK SLP170 DENSITY ALT 4300FT

10-Day Weather Forecast

No radar image for this location.
×

Almanac

Astronomy

Sep. 27, 2016 Rise Set
Actual Time
Civil Twilight
Nautical Twilight
Astronomical Twilight
Moon
Length of Visible Light
Length of Day
Tomorrow will be .
, % of the Moon is Illuminated

Today's Extremes

Country Highs Country Lows

Community

WunderPhotos

Upload Photos

1,942,135 photos uploaded!

WunderBlog® & News

Nearby

Air Quality

  Air Quality AQ Index Pollutant
Not available.

Snow Depth

Station Depth Elevation

Earthquake Activity

City Distance Mag. Time & Date
Minimum magnitude displayed is 2.5.

Coastal Water Temperatures

Place Temperature

Stations

Nearby Weather Stations

Station Location Temp. Windchill Dew Point Humidity Wind Precip. Elev Updated Type
                   

Watches & Warnings

There are currently no watches in effect.